createdAt,value
2023-03-01T04:01:05.216Z,0.70
2023-03-01T04:03:34.223Z,0.60
2023-03-01T04:06:02.714Z,0.60
2023-03-01T04:08:29.926Z,0.50
2023-03-01T04:11:22.399Z,0.40
2023-03-01T04:13:49.686Z,0.40
2023-03-01T04:16:17.378Z,0.40
2023-03-01T04:18:45.204Z,0.40
2023-03-01T04:21:12.681Z,0.30
2023-03-01T04:23:41.667Z,0.40
2023-03-01T04:26:09.449Z,0.40
2023-03-01T04:28:40.989Z,0.40
2023-03-01T04:31:14.661Z,0.40
2023-03-01T04:33:43.840Z,0.40
2023-03-01T04:36:12.531Z,0.60
2023-03-01T04:38:40.903Z,0.60
2023-03-01T04:41:10.832Z,0.40
2023-03-01T04:43:39.129Z,0.40
2023-03-01T04:46:10.206Z,0.40
2023-03-01T04:48:42.197Z,0.30
2023-03-01T04:51:09.590Z,0.30
2023-03-01T04:53:37.504Z,0.20
2023-03-01T04:56:05.168Z,0.40
2023-03-01T04:58:32.713Z,0.30
2023-03-01T05:00:59.919Z,0.30
2023-03-01T05:03:27.304Z,0.30
2023-03-01T05:05:54.524Z,0.40
2023-03-01T05:08:21.796Z,0.50
2023-03-01T05:10:53.470Z,0.50
2023-03-01T05:13:22.098Z,0.50
2023-03-01T05:15:55.879Z,0.60
2023-03-01T05:18:27.021Z,0.50
2023-03-01T05:20:57.243Z,0.50
2023-03-01T05:23:25.104Z,0.40
2023-03-01T05:25:53.293Z,0.40
2023-03-01T05:28:21.504Z,0.40
2023-03-01T05:30:48.932Z,0.40
2023-03-01T05:33:16.186Z,0.30
2023-03-01T05:35:44.664Z,0.40
2023-03-01T05:38:16.755Z,0.40
2023-03-01T05:40:45.836Z,0.40
2023-03-01T05:43:15.455Z,0.20
2023-03-01T05:45:43.537Z,0.10
2023-03-01T05:48:11.917Z,0.20
2023-03-01T05:50:42.453Z,0.30
2023-03-01T05:53:24.321Z,0.20
2023-03-01T05:55:52.340Z,0.20
2023-03-01T05:58:21.143Z,0.20
2023-03-01T06:00:49.685Z,0.20
2023-03-01T06:03:18.324Z,0.10
2023-03-01T06:05:46.135Z,0.20
2023-03-01T06:08:13.968Z,0.20
2023-03-01T06:10:41.734Z,0.20
2023-03-01T06:13:09.173Z,0.20
2023-03-01T06:15:36.396Z,0.30
2023-03-01T06:18:03.761Z,0.30
2023-03-01T06:20:31.149Z,0.30
2023-03-01T06:22:58.510Z,0.30
2023-03-01T06:25:27.944Z,0.30
2023-03-01T06:27:55.745Z,0.40
2023-03-01T06:30:25.859Z,0.50
2023-03-01T06:32:53.645Z,0.60
2023-03-01T06:35:21.023Z,0.60
2023-03-01T06:37:49.554Z,0.70
2023-03-01T06:40:17.221Z,0.70
2023-03-01T06:42:50.159Z,0.60
2023-03-01T06:45:19.118Z,0.60
2023-03-01T06:47:46.633Z,0.70
2023-03-01T06:50:15.175Z,0.80
2023-03-01T06:52:44.814Z,0.80
2023-03-01T06:55:13.832Z,0.70
2023-03-01T06:57:41.228Z,0.60
2023-03-01T07:00:09.237Z,0.70
2023-03-01T07:02:36.548Z,0.70
2023-03-01T07:05:03.947Z,0.60
2023-03-01T07:07:31.197Z,0.60
2023-03-01T07:09:58.405Z,0.70
2023-03-01T07:12:25.583Z,0.70
2023-03-01T07:14:52.746Z,0.80
2023-03-01T07:17:19.959Z,0.80
2023-03-01T07:19:47.126Z,0.80
2023-03-01T07:22:14.330Z,0.70
2023-03-01T07:24:43.482Z,0.70
2023-03-01T07:27:11.009Z,0.80
2023-03-01T07:29:38.197Z,0.90
2023-03-01T07:32:06.899Z,0.90
2023-03-01T07:34:34.309Z,1.00
2023-03-01T07:37:01.457Z,1.10
2023-03-01T07:39:28.708Z,1.00
2023-03-01T07:41:55.871Z,1.00
2023-03-01T07:44:23.246Z,1.10
2023-03-01T07:46:50.468Z,1.10
2023-03-01T07:49:17.619Z,1.10
2023-03-01T07:51:44.786Z,1.00
2023-03-01T07:54:11.993Z,1.00
2023-03-01T07:56:39.697Z,1.10
2023-03-01T07:59:07.022Z,1.30
2023-03-01T08:01:34.269Z,1.40
2023-03-01T08:04:02.679Z,1.30
2023-03-01T08:06:30.050Z,1.40
2023-03-01T08:08:57.419Z,1.40
2023-03-01T08:11:24.715Z,1.40
2023-03-01T08:13:53.058Z,1.40
2023-03-01T08:16:21.405Z,1.40
2023-03-01T08:18:48.601Z,1.50
2023-03-01T08:21:18.038Z,1.60
2023-03-01T08:23:45.648Z,1.70
2023-03-01T08:26:19.509Z,1.70
2023-03-01T08:28:47.653Z,1.70
2023-03-01T08:31:23.178Z,1.70
2023-03-01T08:33:56.117Z,1.50
2023-03-01T08:36:28.843Z,1.50
2023-03-01T08:38:56.649Z,1.50
2023-03-01T08:41:24.438Z,1.60
2023-03-01T08:43:52.005Z,1.70
2023-03-01T08:46:19.442Z,1.70
2023-03-01T08:48:46.688Z,1.60
2023-03-01T08:51:21.670Z,1.50
2023-03-01T08:53:49.284Z,1.70
2023-03-01T08:56:17.281Z,1.70
2023-03-01T08:58:46.275Z,1.60
2023-03-01T09:01:18.760Z,1.70
2023-03-01T09:03:46.870Z,1.80
2023-03-01T09:06:15.424Z,1.90
2023-03-01T09:08:48.390Z,1.90
2023-03-01T09:11:20.418Z,1.90
2023-03-01T09:13:49.693Z,2.00
2023-03-01T09:16:20.199Z,1.90
2023-03-01T09:18:51.556Z,1.90
2023-03-01T09:21:37.305Z,1.80
2023-03-01T09:24:06.708Z,1.80
2023-03-01T09:26:34.163Z,1.80
2023-03-01T09:29:01.471Z,1.90
2023-03-01T09:31:28.745Z,1.90
2023-03-01T09:33:55.967Z,1.80
2023-03-01T09:36:26.231Z,1.90
2023-03-01T09:38:54.281Z,2.00
2023-03-01T09:41:42.896Z,2.10
2023-03-01T09:44:32.419Z,2.00
2023-03-01T09:47:01.356Z,2.00
2023-03-01T09:49:37.882Z,2.10
2023-03-01T09:52:20.366Z,2.30
2023-03-01T09:54:50.032Z,2.60
2023-03-01T09:57:29.449Z,2.60
2023-03-01T10:00:14.091Z,2.40
2023-03-01T10:02:50.166Z,2.40
2023-03-01T10:05:37.858Z,2.60
2023-03-01T10:08:34.738Z,2.30
2023-03-01T10:11:02.197Z,2.30
2023-03-01T10:13:59.176Z,2.50
2023-03-01T10:16:40.395Z,2.60
2023-03-01T10:19:14.452Z,2.80
2023-03-01T10:21:46.466Z,2.70
2023-03-01T10:24:17.517Z,2.70
2023-03-01T10:27:00.247Z,2.90
2023-03-01T10:29:38.738Z,2.90
2023-03-01T10:37:16.732Z,2.80
2023-03-01T10:40:11.668Z,2.70
2023-03-01T10:42:50.588Z,2.60
2023-03-01T10:45:37.974Z,2.70
2023-03-01T10:48:16.967Z,2.80
2023-03-01T10:50:49.399Z,3.00
2023-03-01T10:53:27.677Z,2.90
2023-03-01T10:55:58.981Z,2.90
2023-03-01T10:58:26.212Z,3.00
2023-03-01T11:01:02.400Z,3.10
2023-03-01T11:03:39.997Z,3.20
2023-03-01T11:06:13.504Z,3.10
2023-03-01T11:08:46.039Z,3.10
2023-03-01T11:11:35.271Z,3.10
2023-03-01T11:14:27.596Z,3.30
2023-03-01T11:17:02.783Z,3.40
2023-03-01T11:19:30.537Z,3.40
2023-03-01T11:22:28.124Z,3.30
2023-03-01T11:25:09.530Z,3.40
2023-03-01T11:27:49.162Z,3.50
2023-03-01T11:30:28.546Z,3.80
2023-03-01T11:33:14.367Z,3.70
2023-03-01T11:35:55.872Z,3.50
2023-03-01T11:38:31.739Z,3.50
2023-03-01T11:41:12.451Z,3.80
2023-03-01T11:44:30.544Z,3.90
2023-03-01T11:47:39.781Z,4.00
2023-03-01T11:50:09.909Z,4.10
2023-03-01T11:52:52.948Z,4.00
2023-03-01T11:55:31.583Z,4.00
2023-03-01T11:58:09.868Z,3.70
2023-03-01T12:01:13.642Z,3.60
2023-03-01T12:04:04.224Z,3.50
2023-03-01T12:07:00.713Z,3.70
2023-03-01T12:09:27.820Z,3.90
2023-03-01T12:12:18.335Z,4.00
2023-03-01T12:15:03.326Z,3.80
2023-03-01T12:18:16.892Z,3.60
2023-03-01T12:20:59.057Z,3.70
2023-03-01T12:23:59.281Z,3.60
2023-03-01T12:26:34.723Z,3.60
2023-03-01T12:29:32.625Z,3.60
2023-03-01T12:32:26.870Z,3.60
2023-03-01T12:35:35.236Z,3.80
2023-03-01T12:38:26.529Z,3.60
2023-03-01T12:41:16.313Z,3.60
2023-03-01T12:43:58.825Z,3.40
2023-03-01T12:46:47.390Z,3.80
2023-03-01T12:49:31.083Z,3.90
2023-03-01T12:52:10.464Z,3.70
2023-03-01T12:54:38.404Z,3.70
2023-03-01T12:57:37.890Z,3.70
2023-03-01T13:00:19.306Z,3.90
2023-03-01T13:03:03.830Z,3.90
2023-03-01T13:05:40.078Z,3.90
2023-03-01T13:08:15.867Z,3.70
2023-03-01T13:11:06.411Z,3.70
2023-03-01T13:13:34.133Z,3.70
2023-03-01T13:16:30.798Z,3.60
2023-03-01T13:19:44.927Z,3.60
2023-03-01T13:22:32.446Z,3.50
2023-03-01T13:25:20.756Z,3.70
2023-03-01T13:27:49.161Z,3.70
2023-03-01T13:30:34.813Z,3.50
2023-03-01T13:33:46.279Z,3.40
2023-03-01T13:36:33.472Z,3.10
2023-03-01T13:39:16.749Z,3.00
2023-03-01T13:41:43.979Z,3.20
2023-03-01T13:44:30.006Z,3.30
2023-03-01T13:47:06.450Z,3.30
2023-03-01T13:49:46.554Z,3.10
2023-03-01T13:52:38.428Z,3.00
2023-03-01T13:55:14.709Z,2.80
2023-03-01T13:57:48.346Z,2.80
2023-03-01T14:00:37.903Z,2.70
2023-03-01T14:03:25.890Z,3.00
2023-03-01T14:06:16.738Z,2.90
2023-03-01T14:08:46.816Z,2.80
2023-03-01T14:11:38.934Z,2.90
2023-03-01T14:14:17.904Z,3.00
2023-03-01T14:17:23.287Z,3.00
2023-03-01T14:19:58.314Z,3.10
2023-03-01T14:22:36.879Z,2.90
2023-03-01T14:25:20.839Z,2.80
2023-03-01T14:27:57.744Z,2.80
2023-03-01T14:30:35.010Z,2.60
2023-03-01T14:33:04.961Z,2.70
2023-03-01T14:35:35.560Z,2.80
2023-03-01T14:38:03.426Z,2.90
2023-03-01T14:40:36.695Z,3.00
2023-03-01T14:43:19.685Z,2.80
2023-03-01T14:45:51.427Z,2.80
2023-03-01T14:48:20.281Z,3.00
2023-03-01T14:50:48.018Z,3.10
2023-03-01T14:53:20.130Z,3.20
2023-03-01T14:55:51.725Z,3.10
2023-03-01T14:58:23.175Z,3.10
2023-03-01T15:01:02.252Z,3.30
2023-03-01T15:03:49.912Z,3.30
2023-03-01T15:06:21.426Z,3.10
2023-03-01T15:08:51.734Z,3.10
2023-03-01T15:11:27.851Z,2.90
2023-03-01T15:13:55.514Z,3.00
2023-03-01T15:16:28.615Z,3.10
2023-03-01T15:18:59.785Z,3.00
2023-03-01T15:21:31.667Z,3.00
2023-03-01T15:24:22.001Z,2.80
2023-03-01T15:27:02.923Z,2.80
2023-03-01T15:29:34.307Z,2.80
2023-03-01T15:32:31.890Z,2.70
2023-03-01T15:35:00.826Z,2.70
2023-03-01T15:37:51.122Z,2.40
2023-03-01T15:40:32.529Z,2.60
2023-03-01T15:43:04.630Z,2.60
2023-03-01T15:45:34.949Z,2.70
2023-03-01T15:48:05.327Z,2.60
2023-03-01T15:50:35.580Z,2.70
2023-03-01T15:53:09.660Z,2.70
2023-03-01T15:55:36.849Z,2.60
2023-03-01T15:58:14.164Z,2.50
2023-03-01T16:00:48.810Z,2.50
2023-03-01T16:03:26.901Z,2.60
2023-03-01T16:05:54.653Z,2.40
2023-03-01T16:08:21.845Z,2.40
2023-03-01T16:10:52.249Z,2.50
2023-03-01T16:13:20.286Z,2.40
2023-03-01T16:15:47.925Z,2.40
2023-03-01T16:18:15.429Z,2.10
2023-03-01T16:20:42.686Z,2.20
2023-03-01T16:23:11.866Z,2.20
2023-03-01T16:25:39.190Z,2.00
2023-03-01T16:28:09.998Z,2.00
2023-03-01T16:30:40.548Z,2.00
2023-03-01T16:33:23.994Z,2.00
2023-03-01T16:35:52.661Z,2.00
2023-03-01T16:38:19.915Z,2.00
2023-03-01T16:40:51.833Z,2.10
2023-03-01T16:43:19.149Z,2.20
2023-03-01T16:45:47.404Z,2.30
2023-03-01T16:48:15.244Z,2.20
2023-03-01T16:50:42.450Z,2.20
2023-03-01T16:53:10.016Z,2.00
2023-03-01T16:55:37.458Z,1.90
2023-03-01T16:58:05.445Z,1.90
2023-03-01T17:00:32.747Z,2.00
2023-03-01T17:03:00.001Z,1.90
2023-03-01T17:05:27.356Z,1.90
2023-03-01T17:07:56.651Z,1.90
2023-03-01T17:10:23.926Z,2.00
2023-03-01T17:12:51.192Z,2.10
2023-03-01T17:15:18.509Z,2.10
2023-03-01T17:17:45.759Z,2.10
2023-03-01T17:20:13.401Z,2.10
2023-03-01T17:22:40.639Z,2.00
2023-03-01T17:25:11.909Z,1.90
2023-03-01T17:27:40.070Z,1.90
2023-03-01T17:30:12.460Z,1.90
2023-03-01T17:32:40.210Z,1.90
2023-03-01T17:35:08.751Z,1.90
2023-03-01T17:37:37.109Z,1.90
2023-03-01T17:40:04.710Z,2.00
2023-03-01T17:42:32.726Z,2.00
2023-03-01T17:45:00.699Z,2.00
2023-03-01T17:47:27.935Z,2.00
2023-03-01T17:49:55.197Z,1.90
2023-03-01T17:52:23.722Z,2.00
2023-03-01T17:54:51.184Z,2.00
2023-03-01T17:57:18.388Z,1.90
2023-03-01T17:59:45.575Z,1.90
2023-03-01T18:02:13.286Z,1.80
2023-03-01T18:04:40.686Z,1.90
2023-03-01T18:07:07.926Z,2.00
2023-03-01T18:09:35.187Z,2.00
2023-03-01T18:12:02.469Z,2.10
2023-03-01T18:14:33.787Z,2.10
2023-03-01T18:17:06.658Z,2.20
2023-03-01T18:19:34.044Z,2.20
2023-03-01T18:22:01.238Z,2.10
2023-03-01T18:24:28.473Z,2.10
2023-03-01T18:26:55.599Z,2.20
2023-03-01T18:29:22.962Z,2.20
2023-03-01T18:31:50.589Z,2.20
2023-03-01T18:34:17.961Z,2.00
2023-03-01T18:37:00.564Z,2.10
2023-03-01T18:39:33.247Z,2.20
2023-03-01T18:42:00.509Z,2.20
2023-03-01T18:44:27.783Z,2.20
2023-03-01T18:46:58.166Z,2.20
2023-03-01T18:49:28.799Z,2.30
2023-03-01T18:51:56.650Z,2.20
2023-03-01T18:54:24.037Z,2.20
2023-03-01T18:56:51.452Z,2.10
2023-03-01T18:59:18.625Z,2.10
2023-03-01T19:01:46.053Z,2.00
2023-03-01T19:04:13.534Z,2.00
2023-03-01T19:06:40.781Z,2.10
2023-03-01T19:09:08.750Z,2.10
2023-03-01T19:11:36.091Z,2.10
2023-03-01T19:14:04.691Z,1.90
2023-03-01T19:16:34.287Z,1.90
2023-03-01T19:19:03.701Z,2.10
2023-03-01T19:21:32.785Z,2.20
2023-03-01T19:24:02.430Z,2.30
2023-03-01T19:26:31.790Z,2.30
2023-03-01T19:28:59.712Z,2.30
2023-03-01T19:31:29.527Z,2.30
2023-03-01T19:34:09.961Z,2.30
2023-03-01T19:36:42.614Z,2.30
2023-03-01T19:39:13.357Z,2.30
2023-03-01T19:41:41.454Z,2.30
2023-03-01T19:44:08.956Z,2.30
2023-03-01T19:46:36.628Z,2.30
2023-03-01T19:49:05.306Z,2.30
2023-03-01T19:51:38.757Z,2.20
2023-03-01T19:54:06.499Z,2.10
2023-03-01T19:56:34.857Z,2.10
2023-03-01T19:59:04.325Z,2.20
2023-03-01T20:01:34.206Z,2.20
2023-03-01T20:04:02.809Z,2.20
2023-03-01T20:06:30.797Z,2.20
2023-03-01T20:08:59.602Z,2.20
2023-03-01T20:11:29.584Z,2.30
2023-03-01T20:13:56.799Z,2.40
2023-03-01T20:16:26.314Z,2.40
2023-03-01T20:18:54.282Z,2.30
2023-03-01T20:21:25.032Z,2.30
2023-03-01T20:23:52.791Z,2.30
2023-03-01T20:26:21.902Z,2.30
2023-03-01T20:28:51.258Z,2.30
2023-03-01T20:31:20.133Z,2.20
2023-03-01T20:33:47.721Z,2.30
2023-03-01T20:36:15.716Z,2.40
2023-03-01T20:38:42.940Z,2.40
2023-03-01T20:41:12.507Z,2.40
2023-03-01T20:43:41.529Z,2.40
2023-03-01T20:46:11.752Z,2.30
2023-03-01T20:48:43.028Z,2.40
2023-03-01T20:51:12.196Z,2.40
2023-03-01T20:53:39.939Z,2.40
2023-03-01T20:56:10.343Z,2.30
2023-03-01T20:58:38.039Z,2.30
2023-03-01T21:01:07.058Z,2.30
2023-03-01T21:03:34.615Z,2.40
2023-03-01T21:06:03.671Z,2.50
2023-03-01T21:08:31.158Z,2.50
2023-03-01T21:10:58.649Z,2.50
2023-03-01T21:13:27.395Z,2.50
2023-03-01T21:15:58.817Z,2.50
2023-03-01T21:18:29.849Z,2.50
2023-03-01T21:21:01.740Z,2.40
2023-03-01T21:23:30.485Z,2.40
2023-03-01T21:26:21.417Z,2.50
2023-03-01T21:28:50.869Z,2.60
2023-03-01T21:31:22.108Z,2.40
2023-03-01T21:33:57.541Z,2.40
2023-03-01T21:36:26.110Z,2.40
2023-03-01T21:38:54.177Z,2.50
2023-03-01T21:41:24.563Z,2.50
2023-03-01T21:43:53.251Z,2.30
2023-03-01T21:46:25.954Z,2.30
2023-03-01T21:48:54.910Z,2.30
2023-03-01T21:51:24.493Z,2.40
2023-03-01T21:53:52.297Z,2.30
2023-03-01T21:56:21.923Z,2.30
2023-03-01T21:58:49.767Z,2.30
